createdAt,value
2024-01-18T00:02:19.623Z,95898.22
2024-01-18T00:04:46.979Z,95909.28
2024-01-18T00:07:14.295Z,95908.91
2024-01-18T00:09:41.222Z,95906.31
2024-01-18T00:12:08.391Z,95902.13
2024-01-18T00:14:35.286Z,95905.13
2024-01-18T00:17:02.161Z,95909.41
2024-01-18T00:19:29.681Z,95910.16
2024-01-18T00:21:56.537Z,95914.09
2024-01-18T00:24:23.377Z,95926.41
2024-01-18T00:26:53.142Z,95914.13
2024-01-18T00:29:20.122Z,95928.88
2024-01-18T00:31:46.993Z,95923.88
2024-01-18T00:34:13.915Z,95931.88
2024-01-18T00:36:40.883Z,95933.69
2024-01-18T00:39:12.345Z,95930.66
2024-01-18T00:41:39.593Z,95937.94
2024-01-18T00:44:06.520Z,95933.97
2024-01-18T00:46:33.360Z,95936.38
2024-01-18T00:49:00.330Z,95938.84
2024-01-18T00:51:27.672Z,95935.41
2024-01-18T00:53:54.799Z,95930.78
2024-01-18T00:56:21.690Z,95935.00
2024-01-18T00:58:49.495Z,95933.13
2024-01-18T01:01:18.298Z,95936.69
2024-01-18T01:03:45.483Z,95938.06
2024-01-18T01:06:13.634Z,95940.66
2024-01-18T01:08:40.804Z,95952.25
2024-01-18T01:11:11.290Z,95956.34
2024-01-18T01:13:38.332Z,95958.97
2024-01-18T01:16:06.153Z,95962.00
2024-01-18T01:18:34.763Z,95956.97
2024-01-18T01:21:01.795Z,95959.25
2024-01-18T01:23:28.743Z,95952.63
2024-01-18T01:25:55.605Z,95957.91
2024-01-18T01:28:22.526Z,95956.16
2024-01-18T01:30:49.791Z,95959.03
2024-01-18T01:33:16.942Z,95967.72
2024-01-18T01:35:43.949Z,95963.34
2024-01-18T01:38:10.849Z,95972.03
2024-01-18T01:40:37.780Z,95978.44
2024-01-18T01:43:04.784Z,95985.97
2024-01-18T01:45:32.831Z,95970.06
2024-01-18T01:48:00.141Z,95990.38
2024-01-18T01:50:27.786Z,96015.22
2024-01-18T01:52:55.117Z,96016.13
2024-01-18T01:55:22.278Z,96009.31
2024-01-18T01:57:49.471Z,96006.91
2024-01-18T02:00:17.802Z,96003.69
2024-01-18T02:02:45.943Z,96034.03
2024-01-18T02:05:13.885Z,96022.78
2024-01-18T02:07:41.317Z,96032.22
2024-01-18T02:10:09.146Z,96042.88
2024-01-18T02:12:36.365Z,96032.56
2024-01-18T02:15:05.891Z,96031.94
2024-01-18T02:17:32.819Z,96053.50
2024-01-18T02:19:59.788Z,96073.03
2024-01-18T02:22:30.239Z,96058.19
2024-01-18T02:25:14.115Z,96065.34
2024-01-18T02:27:41.121Z,96074.63
2024-01-18T02:30:08.927Z,96071.38
2024-01-18T02:32:35.744Z,96076.88
2024-01-18T02:35:02.726Z,96091.19
2024-01-18T02:37:29.974Z,96087.28
2024-01-18T02:39:57.329Z,96087.53
2024-01-18T02:42:24.244Z,96076.44
2024-01-18T02:44:52.214Z,96066.41
2024-01-18T02:47:19.254Z,96067.41
2024-01-18T02:49:46.531Z,96059.09
2024-01-18T02:52:16.256Z,96067.78
2024-01-18T02:54:43.045Z,96078.88
2024-01-18T02:57:09.946Z,96073.34
2024-01-18T02:59:36.746Z,96073.50
2024-01-18T03:02:03.706Z,96073.56
2024-01-18T03:04:30.508Z,96066.03
2024-01-18T03:06:57.282Z,96079.19
2024-01-18T03:09:24.921Z,96078.41
2024-01-18T03:11:51.886Z,96089.25
2024-01-18T03:14:21.378Z,96058.97
2024-01-18T03:16:48.272Z,96085.53
2024-01-18T03:19:15.357Z,96074.34
2024-01-18T03:21:42.397Z,96061.22
2024-01-18T03:24:09.481Z,96075.22
2024-01-18T03:26:36.340Z,96084.72
2024-01-18T03:29:03.181Z,96089.09
2024-01-18T03:31:31.365Z,96108.69
2024-01-18T03:33:58.559Z,96107.31
2024-01-18T03:36:25.536Z,96093.16
2024-01-18T03:38:52.408Z,96095.75
2024-01-18T03:41:19.469Z,96083.16
2024-01-18T03:43:46.275Z,96074.31
2024-01-18T03:46:16.542Z,96070.69
2024-01-18T03:48:43.727Z,96064.09
2024-01-18T03:51:10.789Z,96055.88
2024-01-18T03:53:43.180Z,96071.50
2024-01-18T03:56:12.835Z,96077.03
2024-01-18T03:58:43.301Z,96067.72
2024-01-18T04:01:10.587Z,96074.66
2024-01-18T04:03:40.930Z,96083.94
2024-01-18T04:06:07.965Z,96074.47
2024-01-18T04:08:34.813Z,96057.94
2024-01-18T04:11:03.327Z,96064.41
2024-01-18T04:13:30.265Z,96069.50
2024-01-18T04:15:57.093Z,96055.63
2024-01-18T04:18:24.121Z,96061.50
2024-01-18T04:20:53.810Z,96057.72
2024-01-18T04:23:21.112Z,96062.78
2024-01-18T04:25:52.736Z,96065.16
2024-01-18T04:28:20.931Z,96071.09
2024-01-18T04:30:48.405Z,96067.31
2024-01-18T04:33:15.724Z,96070.81
2024-01-18T04:35:42.629Z,96061.53
2024-01-18T04:38:09.518Z,96065.63
2024-01-18T04:40:36.395Z,96078.72
2024-01-18T04:43:03.411Z,96069.75
2024-01-18T04:45:30.486Z,96067.84
2024-01-18T04:47:58.815Z,96080.44
2024-01-18T04:50:27.029Z,96081.53
2024-01-18T04:52:55.634Z,96084.22
2024-01-18T04:55:23.401Z,96088.00
2024-01-18T04:57:50.971Z,96095.75
2024-01-18T05:00:18.525Z,96086.72
2024-01-18T05:02:45.481Z,96097.09
2024-01-18T05:05:13.356Z,96088.75
2024-01-18T05:07:44.674Z,96113.53
2024-01-18T05:10:12.343Z,96096.53
2024-01-18T05:12:39.813Z,96131.53
2024-01-18T05:15:11.355Z,96126.06
2024-01-18T05:17:41.281Z,96142.78
2024-01-18T05:20:09.409Z,96147.31
2024-01-18T05:22:37.361Z,96150.34
2024-01-18T05:25:04.699Z,96143.72
2024-01-18T05:27:32.095Z,96138.69
2024-01-18T05:30:00.055Z,96134.28
2024-01-18T05:32:27.654Z,96140.59
2024-01-18T05:34:54.665Z,96136.84
2024-01-18T05:37:24.345Z,96143.13
2024-01-18T05:39:51.951Z,96148.00
2024-01-18T05:42:20.067Z,96156.53
2024-01-18T05:44:48.524Z,96161.56
2024-01-18T05:47:15.895Z,96151.31
2024-01-18T05:49:42.975Z,96141.41
2024-01-18T05:52:09.889Z,96135.09
2024-01-18T05:54:36.830Z,96138.75
2024-01-18T05:57:05.512Z,96148.16
2024-01-18T05:59:32.610Z,96152.09
2024-01-18T06:02:00.138Z,96134.16
2024-01-18T06:04:27.204Z,96129.91
2024-01-18T06:06:54.340Z,96133.53
2024-01-18T06:09:21.399Z,96133.19
2024-01-18T06:11:49.752Z,96128.16
2024-01-18T06:14:16.752Z,96121.41
2024-01-18T06:16:43.671Z,96117.63
2024-01-18T06:19:12.783Z,96122.19
2024-01-18T06:21:39.870Z,96123.78
2024-01-18T06:24:07.248Z,96120.63
2024-01-18T06:26:34.580Z,96129.59
2024-01-18T06:29:01.424Z,96137.91
2024-01-18T06:31:28.425Z,96130.22
2024-01-18T06:33:55.671Z,96136.03
2024-01-18T06:36:23.699Z,96124.53
2024-01-18T06:38:53.708Z,96120.44
2024-01-18T06:41:23.181Z,96111.31
2024-01-18T06:43:51.374Z,96110.38
2024-01-18T06:46:19.124Z,96111.66
2024-01-18T06:48:55.265Z,96110.19
2024-01-18T06:51:23.010Z,96104.22
2024-01-18T06:53:51.507Z,96110.88
2024-01-18T06:56:18.564Z,96106.91
2024-01-18T06:58:45.510Z,96111.03
2024-01-18T07:01:14.046Z,96112.91
2024-01-18T07:03:43.375Z,96100.94
2024-01-18T07:06:10.722Z,96112.13
2024-01-18T07:08:40.327Z,96108.97
2024-01-18T07:11:07.183Z,96115.91
2024-01-18T07:13:34.087Z,96112.59
2024-01-18T07:16:01.628Z,96127.34
2024-01-18T07:18:28.812Z,96117.31
2024-01-18T07:20:55.707Z,96128.47
2024-01-18T07:23:22.860Z,96147.03
2024-01-18T07:25:49.798Z,96136.94
2024-01-18T07:28:16.744Z,96155.69
2024-01-18T07:30:43.778Z,96135.53
2024-01-18T07:33:10.935Z,96136.63
2024-01-18T07:35:38.063Z,96145.28
2024-01-18T07:38:05.636Z,96149.97
2024-01-18T07:40:32.883Z,96148.88
2024-01-18T07:42:59.854Z,96156.47
2024-01-18T07:45:27.043Z,96131.13
2024-01-18T07:47:54.596Z,96171.69
2024-01-18T07:50:33.497Z,96136.44
2024-01-18T07:53:03.502Z,96184.75
2024-01-18T07:55:31.113Z,96165.53
2024-01-18T07:57:58.073Z,96172.13
2024-01-18T08:00:26.529Z,96166.31
2024-01-18T08:02:54.384Z,96186.44
2024-01-18T08:05:22.414Z,96170.22
2024-01-18T08:07:49.563Z,96182.78
2024-01-18T08:10:16.550Z,96162.34
2024-01-18T08:12:47.674Z,96181.25
2024-01-18T08:15:14.857Z,96185.78
2024-01-18T08:17:45.047Z,96202.78
2024-01-18T08:20:14.461Z,96193.03
2024-01-18T08:22:43.209Z,96210.78
2024-01-18T08:25:14.227Z,96204.50
2024-01-18T08:27:45.885Z,96220.19
2024-01-18T08:30:13.384Z,96218.81
2024-01-18T08:32:40.329Z,96238.34
2024-01-18T08:35:08.389Z,96240.72
2024-01-18T08:37:37.305Z,96244.47
2024-01-18T08:40:05.967Z,96254.41
2024-01-18T08:42:33.077Z,96248.50
2024-01-18T08:44:59.945Z,96260.16
2024-01-18T08:47:27.658Z,96239.84
2024-01-18T08:49:54.747Z,96257.63
2024-01-18T08:52:23.472Z,96251.88
2024-01-18T08:54:50.753Z,96266.59
2024-01-18T08:57:19.499Z,96260.56
2024-01-18T08:59:46.483Z,96281.81
2024-01-18T09:02:20.737Z,96295.88
2024-01-18T09:04:51.449Z,96307.66
2024-01-18T09:07:18.415Z,96295.75
2024-01-18T09:09:46.718Z,96309.03
2024-01-18T09:12:14.855Z,96298.19
2024-01-18T09:14:42.026Z,96315.91
2024-01-18T09:17:10.998Z,96317.81
2024-01-18T09:19:38.110Z,96315.38
2024-01-18T09:22:04.947Z,96307.97
2024-01-18T09:24:31.799Z,96322.09
2024-01-18T09:26:58.627Z,96326.06
2024-01-18T09:29:25.460Z,96332.19
2024-01-18T09:31:52.365Z,96341.63
2024-01-18T09:34:19.282Z,96352.34
2024-01-18T09:36:48.706Z,96357.22
2024-01-18T09:39:17.617Z,96385.53
2024-01-18T09:41:54.233Z,96393.88
2024-01-18T09:44:26.781Z,96411.88
2024-01-18T09:46:59.214Z,96435.28
2024-01-18T09:49:31.348Z,96448.53
2024-01-18T09:51:59.363Z,96453.13
2024-01-18T09:54:26.911Z,96457.38
2024-01-18T09:56:54.982Z,96462.81
2024-01-18T09:59:26.284Z,96470.63
2024-01-18T10:01:53.248Z,96473.09
2024-01-18T10:04:21.297Z,96458.47
2024-01-18T10:06:48.425Z,96465.69
2024-01-18T10:09:16.148Z,96457.97
2024-01-18T10:11:48.158Z,96456.97
2024-01-18T10:14:15.773Z,96462.03
2024-01-18T10:16:43.503Z,96461.44
2024-01-18T10:19:16.061Z,96474.81
2024-01-18T10:21:45.440Z,96488.16
2024-01-18T10:24:14.841Z,96484.91
2024-01-18T10:26:42.375Z,96485.59
2024-01-18T10:29:13.238Z,96489.22
2024-01-18T10:31:43.920Z,96503.69
2024-01-18T10:34:11.574Z,96503.28
2024-01-18T10:36:39.608Z,96503.88
2024-01-18T10:39:20.024Z,96511.19
2024-01-18T10:41:48.045Z,96515.75
2024-01-18T10:44:16.515Z,96517.34
2024-01-18T10:46:43.798Z,96527.59
2024-01-18T10:49:12.286Z,96531.84
2024-01-18T10:51:41.270Z,96543.56
2024-01-18T10:54:21.489Z,96558.50
2024-01-18T10:56:58.358Z,96562.16
2024-01-18T10:59:25.936Z,96559.50
2024-01-18T11:02:01.247Z,96563.34
2024-01-18T11:04:32.172Z,96571.34
2024-01-18T11:07:00.020Z,96575.78
2024-01-18T11:09:30.932Z,96580.22
2024-01-18T11:11:59.352Z,96586.03
2024-01-18T11:14:28.717Z,96599.38
2024-01-18T11:16:59.869Z,96604.34
2024-01-18T11:19:44.858Z,96605.22
2024-01-18T11:22:23.697Z,96614.38
2024-01-18T11:24:51.271Z,96619.53
2024-01-18T11:27:23.190Z,96628.91
2024-01-18T11:29:51.059Z,96638.56
2024-01-18T11:32:23.070Z,96642.84
2024-01-18T11:34:50.549Z,96659.44
2024-01-18T11:37:20.617Z,96658.28
2024-01-18T11:39:50.905Z,96664.03
2024-01-18T11:42:21.114Z,96656.75
2024-01-18T11:44:58.312Z,96666.28
2024-01-18T11:47:30.032Z,96673.72
2024-01-18T11:49:58.275Z,96672.94
2024-01-18T11:52:27.052Z,96688.53
2024-01-18T11:54:57.435Z,96692.78
2024-01-18T11:57:25.265Z,96702.56
2024-01-18T11:59:54.817Z,96707.72
2024-01-18T12:02:23.043Z,96708.88
2024-01-18T12:04:52.773Z,96719.88
2024-01-18T12:07:23.226Z,96718.31
2024-01-18T12:09:50.539Z,96725.22
2024-01-18T12:12:19.985Z,96733.75
2024-01-18T12:14:48.697Z,96739.81
2024-01-18T12:17:17.392Z,96745.72
2024-01-18T12:19:47.732Z,96747.66
2024-01-18T12:22:19.699Z,96758.78
2024-01-18T12:24:51.024Z,96766.50
2024-01-18T12:27:18.424Z,96769.97
2024-01-18T12:29:46.247Z,96782.53
2024-01-18T12:32:18.751Z,96779.06
2024-01-18T12:34:47.260Z,96787.00
2024-01-18T12:37:15.398Z,96788.94
2024-01-18T12:39:42.521Z,96801.44
2024-01-18T12:42:09.822Z,96807.69
2024-01-18T12:44:37.138Z,96814.63
2024-01-18T12:47:06.090Z,96815.84
2024-01-18T12:49:34.808Z,96830.28
2024-01-18T12:52:04.160Z,96851.19
2024-01-18T12:54:31.688Z,96846.41
2024-01-18T12:57:07.335Z,96857.34
2024-01-18T12:59:37.813Z,96869.09
2024-01-18T13:02:05.547Z,96852.28
2024-01-18T13:04:34.093Z,96862.31
2024-01-18T13:07:05.452Z,96878.34
2024-01-18T13:09:34.817Z,96884.25
2024-01-18T13:12:06.033Z,96888.34
2024-01-18T13:14:37.010Z,96892.09
2024-01-18T13:17:05.146Z,96906.78
2024-01-18T13:19:32.239Z,96913.78
2024-01-18T13:21:59.337Z,96915.19
2024-01-18T13:24:27.087Z,96922.91
2024-01-18T13:26:54.158Z,96919.44
2024-01-18T13:29:21.203Z,96928.53
2024-01-18T13:31:49.182Z,96930.28
2024-01-18T13:34:18.043Z,96945.75
2024-01-18T13:36:46.099Z,96945.22
2024-01-18T13:39:13.338Z,96951.13
2024-01-18T13:41:40.254Z,96958.88
2024-01-18T13:44:08.414Z,96968.94
2024-01-18T13:46:38.875Z,96978.81
2024-01-18T13:49:06.722Z,96975.06
2024-01-18T13:51:33.942Z,96982.00
2024-01-18T13:54:01.935Z,96994.56
2024-01-18T13:56:29.055Z,97003.28
2024-01-18T13:58:56.148Z,97015.66
2024-01-18T14:01:24.519Z,97017.28
2024-01-18T14:03:53.888Z,97028.53
2024-01-18T14:06:23.513Z,97025.81
2024-01-18T14:08:50.960Z,97032.00
2024-01-18T14:11:18.462Z,97053.59
2024-01-18T14:13:45.711Z,97053.88
2024-01-18T14:16:15.548Z,97075.47
2024-01-18T14:18:43.655Z,97082.97
2024-01-18T14:21:11.600Z,97089.69
2024-01-18T14:23:39.752Z,97100.91
2024-01-18T14:26:06.959Z,97109.19
2024-01-18T14:28:35.382Z,97121.72
2024-01-18T14:31:03.117Z,97131.59
2024-01-18T14:33:30.578Z,97146.50
2024-01-18T14:35:58.397Z,97152.66
2024-01-18T14:38:25.308Z,97166.78
2024-01-18T14:40:52.197Z,97173.69
2024-01-18T14:43:20.132Z,97179.50
2024-01-18T14:45:48.593Z,97173.41
2024-01-18T14:48:18.371Z,97181.75
2024-01-18T14:50:47.060Z,97188.16
2024-01-18T14:53:15.739Z,97199.34
2024-01-18T14:55:43.118Z,97206.81
2024-01-18T14:58:11.157Z,97218.28
2024-01-18T15:00:38.985Z,97227.38
2024-01-18T15:03:07.334Z,97245.78
2024-01-18T15:05:34.611Z,97255.41
2024-01-18T15:08:04.933Z,97250.03
2024-01-18T15:10:32.806Z,97250.84
2024-01-18T15:13:00.138Z,97267.66
2024-01-18T15:15:27.586Z,97272.72
2024-01-18T15:17:55.277Z,97281.53
2024-01-18T15:20:22.358Z,97297.56
2024-01-18T15:22:49.456Z,97314.94
2024-01-18T15:25:16.425Z,97325.31
2024-01-18T15:27:43.363Z,97331.19
2024-01-18T15:30:13.939Z,97339.22
2024-01-18T15:32:42.381Z,97351.75
2024-01-18T15:35:11.564Z,97352.53
2024-01-18T15:37:38.610Z,97355.47
2024-01-18T15:40:10.804Z,97365.34
2024-01-18T15:42:38.113Z,97362.69
2024-01-18T15:45:05.769Z,97380.28
2024-01-18T15:47:40.301Z,97394.69
2024-01-18T15:50:08.650Z,97407.53
2024-01-18T15:52:36.341Z,97410.19
2024-01-18T15:55:03.621Z,97427.00
2024-01-18T15:57:30.566Z,97443.81
2024-01-18T15:59:57.845Z,97449.72
2024-01-18T16:02:32.928Z,97468.66
2024-01-18T16:05:02.148Z,97477.47
2024-01-18T16:07:30.669Z,97492.41
2024-01-18T16:09:57.584Z,97484.41
2024-01-18T16:12:24.469Z,97488.97
2024-01-18T16:14:51.429Z,97497.22
2024-01-18T16:17:18.714Z,97513.25
2024-01-18T16:19:45.576Z,97519.13
2024-01-18T16:22:12.429Z,97529.25
2024-01-18T16:24:39.738Z,97535.66
2024-01-18T16:27:06.719Z,97545.81
2024-01-18T16:29:41.574Z,97550.63
2024-01-18T16:32:17.316Z,97562.66
2024-01-18T16:34:44.638Z,97576.78
2024-01-18T16:37:11.544Z,97571.97
2024-01-18T16:39:39.308Z,97588.81
2024-01-18T16:42:06.250Z,97595.22
2024-01-18T16:44:33.131Z,97610.97
2024-01-18T16:47:00.190Z,97616.84
2024-01-18T16:49:27.676Z,97617.91
2024-01-18T16:51:54.536Z,97630.19
2024-01-18T16:54:22.784Z,97636.88
2024-01-18T16:56:50.591Z,97631.00
2024-01-18T16:59:17.527Z,97653.13
2024-01-18T17:01:44.365Z,97649.16
2024-01-18T17:04:12.417Z,97666.25
2024-01-18T17:06:41.083Z,97675.84
2024-01-18T17:09:08.598Z,97683.34
2024-01-18T17:11:37.460Z,97702.25
2024-01-18T17:14:06.116Z,97703.63
2024-01-18T17:16:33.134Z,97723.91
2024-01-18T17:19:00.045Z,97730.00
2024-01-18T17:21:26.890Z,97739.91
2024-01-18T17:23:53.751Z,97734.28
2024-01-18T17:26:20.696Z,97742.56
2024-01-18T17:28:47.590Z,97744.16
2024-01-18T17:31:14.514Z,97756.44
2024-01-18T17:33:41.665Z,97763.41
2024-01-18T17:36:08.906Z,97774.84
2024-01-18T17:38:36.222Z,97776.75
2024-01-18T17:41:03.366Z,97781.00
2024-01-18T17:43:30.243Z,97788.19
2024-01-18T17:45:57.150Z,97789.53
2024-01-18T17:48:26.544Z,97794.88
2024-01-18T17:50:53.539Z,97796.72
2024-01-18T17:53:20.618Z,97799.91
2024-01-18T17:55:47.618Z,97802.53
2024-01-18T17:58:14.745Z,97807.09
2024-01-18T18:00:44.336Z,97810.59
2024-01-18T18:03:12.001Z,97820.72
2024-01-18T18:05:39.141Z,97827.66
2024-01-18T18:08:06.585Z,97820.16
2024-01-18T18:10:34.043Z,97824.72
2024-01-18T18:13:00.951Z,97833.28
2024-01-18T18:15:29.899Z,97838.84
2024-01-18T18:17:59.068Z,97835.63
2024-01-18T18:20:26.735Z,97842.59
2024-01-18T18:22:53.800Z,97844.19
2024-01-18T18:25:20.821Z,97847.13
2024-01-18T18:27:47.790Z,97859.66
2024-01-18T18:30:19.643Z,97855.13
2024-01-18T18:32:53.980Z,97859.91
2024-01-18T18:35:21.052Z,97865.81
2024-01-18T18:37:47.993Z,97867.13
2024-01-18T18:40:15.021Z,97874.56
2024-01-18T18:42:42.052Z,97875.63
2024-01-18T18:45:09.361Z,97876.97
2024-01-18T18:47:36.363Z,97889.72
2024-01-18T18:50:03.396Z,97886.56
2024-01-18T18:52:33.285Z,97901.22
2024-01-18T18:55:02.832Z,97912.44
2024-01-18T18:57:30.324Z,97906.09
2024-01-18T18:59:57.579Z,97913.84
2024-01-18T19:02:24.808Z,97917.84
2024-01-18T19:04:51.890Z,97927.78
2024-01-18T19:07:20.904Z,97944.03
2024-01-18T19:09:47.729Z,97938.69
2024-01-18T19:12:14.959Z,97939.25
2024-01-18T19:14:42.240Z,97942.63
2024-01-18T19:17:10.450Z,97949.53
2024-01-18T19:19:37.672Z,97954.91
2024-01-18T19:22:05.583Z,97952.56
2024-01-18T19:24:32.524Z,97960.53
2024-01-18T19:26:59.470Z,97970.34
2024-01-18T19:29:26.292Z,97971.44
2024-01-18T19:31:53.224Z,97978.63
2024-01-18T19:34:20.231Z,97980.78
2024-01-18T19:36:49.484Z,97987.75
2024-01-18T19:39:17.762Z,97989.34
2024-01-18T19:41:44.692Z,98005.34
2024-01-18T19:44:12.010Z,98000.75
2024-01-18T19:46:39.637Z,98012.44
2024-01-18T19:49:07.010Z,98015.06
2024-01-18T19:51:34.100Z,98030.56
2024-01-18T19:54:03.789Z,98032.94
2024-01-18T19:56:30.750Z,98043.06
2024-01-18T19:58:57.851Z,98048.44
2024-01-18T20:01:24.662Z,98045.88
2024-01-18T20:03:51.464Z,98049.34
2024-01-18T20:06:18.384Z,98056.84
2024-01-18T20:08:45.324Z,98063.78
2024-01-18T20:11:14.686Z,98072.53
2024-01-18T20:13:41.555Z,98071.69
2024-01-18T20:16:08.925Z,98082.94
2024-01-18T20:18:35.956Z,98094.59
2024-01-18T20:21:03.738Z,98097.59
2024-01-18T20:23:30.689Z,98103.53
2024-01-18T20:25:57.789Z,98107.06
2024-01-18T20:28:24.702Z,98117.25
2024-01-18T20:30:51.783Z,98123.44
2024-01-18T20:33:19.449Z,98130.88
2024-01-18T20:35:46.956Z,98138.41
2024-01-18T20:38:14.078Z,98142.56
2024-01-18T20:40:41.765Z,98148.91
2024-01-18T20:43:08.851Z,98152.41
2024-01-18T20:45:35.934Z,98155.41
2024-01-18T20:48:03.045Z,98144.19
2024-01-18T20:50:30.501Z,98153.00
2024-01-18T20:52:57.339Z,98159.63
2024-01-18T20:55:24.330Z,98163.91
2024-01-18T20:57:51.446Z,98169.50
2024-01-18T21:00:25.737Z,98175.41
2024-01-18T21:02:56.487Z,98183.16
2024-01-18T21:05:23.443Z,98186.66
2024-01-18T21:07:50.358Z,98191.50
2024-01-18T21:10:19.499Z,98197.38
2024-01-18T21:12:48.684Z,98205.69
2024-01-18T21:15:15.993Z,98198.50
2024-01-18T21:17:45.234Z,98204.56
2024-01-18T21:20:13.399Z,98204.06
2024-01-18T21:22:40.361Z,98203.22
2024-01-18T21:25:07.557Z,98212.78
2024-01-18T21:27:34.661Z,98215.13
2024-01-18T21:30:01.597Z,98224.75
2024-01-18T21:32:28.586Z,98222.41
2024-01-18T21:34:55.506Z,98221.34
2024-01-18T21:37:22.603Z,98223.25
2024-01-18T21:39:49.502Z,98224.25
2024-01-18T21:42:18.003Z,98224.25
2024-01-18T21:44:47.160Z,98228.47
2024-01-18T21:47:14.112Z,98222.09
2024-01-18T21:52:08.404Z,98228.97
2024-01-18T21:54:35.493Z,98232.38
2024-01-18T21:57:02.448Z,98229.97
2024-01-18T21:59:38.900Z,98236.28
2024-01-18T22:02:12.516Z,98238.91
2024-01-18T22:04:40.726Z,98237.34
2024-01-18T22:07:09.745Z,98239.47
2024-01-18T22:09:41.982Z,98246.91
2024-01-18T22:12:11.898Z,98244.59
2024-01-18T22:14:39.408Z,98244.84
2024-01-18T22:17:06.675Z,98253.72
2024-01-18T22:19:43.228Z,98259.31
2024-01-18T22:22:18.811Z,98255.53
2024-01-18T22:24:47.090Z,98264.81
2024-01-18T22:27:14.082Z,98274.94
2024-01-18T22:29:42.620Z,98274.94
2024-01-18T22:32:16.415Z,98275.75
2024-01-18T22:34:43.429Z,98283.75
2024-01-18T22:37:10.306Z,98285.13
2024-01-18T22:39:37.129Z,98294.50
2024-01-18T22:42:04.366Z,98301.63
2024-01-18T22:44:31.318Z,98297.53
2024-01-18T22:47:01.076Z,98303.28
2024-01-18T22:49:28.417Z,98311.00
2024-01-18T22:51:55.510Z,98298.25
2024-01-18T22:54:22.566Z,98303.91
2024-01-18T22:56:49.564Z,98299.94
2024-01-18T22:59:16.583Z,98305.19
2024-01-18T23:01:43.685Z,98308.41
2024-01-18T23:04:13.606Z,98313.94
2024-01-18T23:06:42.750Z,98307.56
2024-01-18T23:09:12.515Z,98311.66
2024-01-18T23:11:41.233Z,98319.91
2024-01-18T23:14:08.465Z,98317.75
2024-01-18T23:16:35.375Z,98318.44
2024-01-18T23:19:02.275Z,98328.25
2024-01-18T23:21:29.223Z,98326.63
2024-01-18T23:23:56.126Z,98330.09
2024-01-18T23:26:23.009Z,98339.41
2024-01-18T23:28:51.328Z,98333.25
2024-01-18T23:31:19.028Z,98334.56
2024-01-18T23:33:46.020Z,98347.06
2024-01-18T23:36:13.136Z,98352.66
2024-01-18T23:38:40.013Z,98351.63
2024-01-18T23:41:07.183Z,98353.53
2024-01-18T23:43:34.029Z,98358.72
2024-01-18T23:46:00.900Z,98360.34
2024-01-18T23:48:27.853Z,98365.69
2024-01-18T23:50:54.754Z,98367.88
2024-01-18T23:53:21.625Z,98364.72
2024-01-18T23:55:48.391Z,98373.13
2024-01-18T23:58:15.266Z,98381.03
